Погода METAR - Красноярск

Код аэропорта ICAO:
Кемерово, Абакан, Красноярск, Новосибирск
Код METAR: UNKL 251100Z 21005G10MPS CAVOK 02/M10 Q1003 R11/CLRD65 NOSIG RMK QFE727
TAF UNKL 250757Z 2509/2609 19006G11MPS 7000 -SHSN SCT020CB 
     TEMPO 2509/2512 22011G20MPS 3100 -SHSN BKN016CB 
     FM251200 23008G16MPS 3100 -SHSN BKN016CB 
     BECMG 2520/2522 24003G10MPS
       

Погода - Сейчас

Время: 2020-01-25 18:00, местное
Направление ветра: Юго-запад (210°)
Скорость ветра: 5 м/с, порывы до 10 м/с
Видимость: более 10км, отсутствие осадков и облаков
Температура: 2°C
Точка росы: -10°C
Атмосферное давление: 1003 гПа

Архив погоды

Время, местное Направление Скорость, м/с Температура, °C Точка росы, °C Давление, гПа
2020-01-25 18:00 ЮЗ (210°) 5, порывы до 10 2 -10 1003
2020-01-24 21:00 ЮЮЗ (200°) 4 1 -4 1007
2020-01-24 19:00 ЮЗ (220°) 4 0 -5 1008
2020-01-24 10:00 ЮЮЗ (200°) 4 -2 -6 1011
2020-01-24 06:30 ЮЮЗ (200°) 6 -3 -7 1012
2020-01-23 17:00 ЮЮЗ (200°) 3 -7 -13 1018
2020-01-23 13:30 Переменный 1 -11 -15 1018
2020-01-23 01:30 Штиль 0 -24 -27 1020
2020-01-18 08:00 ЮЗ (230°) 5 -5 -9 1002
2020-01-15 23:30 Ю (180°) 2 -6 -11 1020
2020-01-11 06:30 В (100°) 1 -28 -31 1030
2020-01-08 23:00 Штиль 0 -12 -14 1028
2020-01-08 14:30 ЗЮЗ (260°) 3 -7 -11 1027
2020-01-08 10:00 ЗЮЗ (250°) 4 -8 -11 1028
2020-01-06 14:00 ЗЮЗ (240°) 4 0 -5 1021
2020-01-03 05:00 ЮЗ (230°) 4 1 -3 1016
2019-12-31 00:30 Штиль 0 -15 -17 1017
2019-12-29 18:30 Штиль 0 -27 -30 1024
2019-12-25 12:30 ЮЮЗ (200°) 3, порывы до 8 -9 -13 1013
2019-12-25 07:00 ЗЮЗ (250°) 4 -12 -15 1018
2019-12-23 04:30 ЮВ (120°) 2 -15 -17 1021
2019-12-22 15:30 В (100°) 2 -17 -20 1018
2019-12-21 16:00 В (90°) 2 -11 -13 1019
2019-12-20 01:30 Штиль 0 -9 -10 1018
2019-12-19 05:00 ЗЮЗ (250°) 3 -7 -9 1023
2019-12-18 16:30 ЮЗ (220°) 3 -7 -10 1027
2019-12-16 11:00 Штиль 0 -16 -18 1033
2019-12-15 03:30 ЗЮЗ (260°) 7 -9 -13 1020
2019-12-13 23:00 ЗЮЗ (250°) 3 -2 -4 1009
2019-12-07 04:30 ЗЮЗ (260°) 6 -1 -6 1016
2019-12-02 15:00 З (270°) 6 -4 -17 1029
2019-11-30 15:00 З (270°) 6 -11 -15 1035
2019-11-29 20:30 З (270°) 5 -10 -14 1027
2019-11-29 02:30 Ю (180°) 2 -23 -25 1030
2019-11-27 08:00 Штиль 0 -24 -26 1033
2019-11-24 23:00 ЗЮЗ (260°) 6 -10 -13 1024
2019-11-20 11:00 СЗ (300°) 4 -15 -18 1015
2019-11-19 17:00 В (100°) 2 -5 -6 1009
2019-11-17 06:30 ЮВ (140°) 4 -16 -19 1029
2019-11-15 21:00 ЗСЗ (290°) 5 -23 -26 1031
2019-11-15 17:00 ЗЮЗ (250°) 2 -23 -25 1028
2019-11-12 21:30 ЮВ (130°) 6 -11 -16 1020
2019-11-11 10:30 З (280°) 4 -18 -21 1029
2019-11-10 10:30 З (280°) 5 -14 -18 1027
2019-11-08 21:00 ЗЮЗ (240°) 5 1 0 1006
2019-11-03 17:30 ЗЮЗ (260°) 4 -4 -14 1036
2019-11-03 06:30 ЗЮЗ (260°) 3 -4 -10 1027
2019-11-02 04:00 ЮЮВ (150°) 3 9 7 1009